Csl Tecumseh — C6ZJ6 — position and weather

sailwx.info

Track history (hours):
 
Tides and Currents Weather Stations Pressure Air Temp Water Temp Dewpoint Dewpoint Depression Visibility Wind Speed Wind Dir Waves Ship Positions

Csl Tecumseh

Last reported at 2017-Nov-23 01:30 UTC. Time now 2017-Nov-23 01:38 UTC.
Position N 37°44' W 122°20'.

Length 229 m; draft 8.1 m.

Type: Cargo ship. MMSI: 311056900.

Date/timePositionNaut miles runAvg speedWind from/ knotsBaromVisibWave heightAir tempDewpointWater temp
2017-Nov-23 01:30N 37°44' W 122°20'5 9.4
2017-Nov-23 01:01N 37°48' W 122°24'5 9.4
2017-Nov-23 00:30N 37°49' W 122°29'510.5
2017-Nov-23 00:00N 37°47' W 122°36'5 9.9
2017-Nov-22 23:30N 37°44' W 122°41'611.5
2017-Nov-22 23:00N 37°38' W 122°40'611.8
2017-Nov-22 22:30N 37°32' W 122°40'611.9
2017-Nov-22 22:00N 37°27' W 122°40'612.1
2017-Nov-22 21:30N 37°21' W 122°40'612.1
2017-Nov-22 21:00N 37°14' W 122°38'4 7.7
2017-Nov-22 20:30N 37°11' W 122°37'3 5.7
2017-Nov-22 20:00N 37°08' W 122°37'612.3
2017-Nov-22 19:30N 37°02' W 122°35'  
2017-Nov-19 17:08N 33°46' W 118°13'0 1.8
2017-Nov-19 16:55N 33°46' W 118°13'2 4.9
2017-Nov-19 16:30N 33°44' W 118°12'4 8.8
2017-Nov-19 16:00N 33°40' W 118°11'5 9.7
2017-Nov-19 15:30N 33°35' W 118°10'510.5
2017-Nov-19 15:00N 33°30' W 118°07'510.5
2017-Nov-19 14:30N 33°25' W 118°05'611.8
2017-Nov-19 14:00N 33°20' W 118°03'5 9.9
2017-Nov-19 13:30N 33°15' W 118°00'3 6.0
2017-Nov-19 13:00N 33°13' W 117°59'4 7.0
2017-Nov-19 12:30N 33°10' W 117°57'611.7
2017-Nov-19 12:00N 33°05' W 117°53'611.5
2017-Nov-19 11:30N 32°59' W 117°51'611.6
2017-Nov-19 10:59N 32°54' W 117°48'611.7
2017-Nov-19 10:30N 32°49' W 117°45'611.8
2017-Nov-19 10:00N 32°44' W 117°41'611.5
2017-Nov-19 09:30N 32°38' W 117°39'611.5
2017-Nov-19 09:00N 32°33' W 117°37'611.8
2017-Nov-19 08:30N 32°27' W 117°34'1411.8
2017-Nov-19 07:20N 32°14' W 117°30'411.6
2017-Nov-19 07:00N 32°10' W 117°28'611.6
2017-Nov-19 06:30N 32°05' W 117°26'611.4
2017-Nov-19 06:00N 31°59' W 117°24'611.3
2017-Nov-19 05:30N 31°54' W 117°22'611.5
2017-Nov-19 04:58N 31°48' W 117°20'511.2
2017-Nov-19 04:30N 31°43' W 117°18'610.9
2017-Nov-19 04:00N 31°38' W 117°16'4111.1
2017-Nov-19 00:21N 30°60' W 117°01'411.5
2017-Nov-19 00:00N 30°56' W 116°59'611.6
2017-Nov-18 23:30N 30°50' W 116°57'611.2
2017-Nov-18 23:00N 30°45' W 116°55'711.0
2017-Nov-18 22:20N 30°38' W 116°52'310.8
2017-Nov-18 22:00N 30°35' W 116°51'610.7
2017-Nov-18 21:27N 30°29' W 116°49'  
Track history (hours):
 
Tides and Currents Weather Stations Pressure Air Temp Water Temp Dewpoint Dewpoint Depression Visibility Wind Speed Wind Dir Waves Ship Positions

Csl Tecumseh

Last reported at 2017-Nov-23 01:30 UTC. Time now 2017-Nov-23 01:38 UTC.
Position N 37°44' W 122°20'.

Length 229 m; draft 8.1 m.

Type: Cargo ship. MMSI: 311056900.

Date/timePositionNaut miles runAvg speedWind from/ knotsBaromVisibWave heightAir tempDewpointWater temp
2017-Nov-23 01:30N 37°44' W 122°20'5 9.4
2017-Nov-23 01:01N 37°48' W 122°24'5 9.4
2017-Nov-23 00:30N 37°49' W 122°29'510.5
2017-Nov-23 00:00N 37°47' W 122°36'5 9.9
2017-Nov-22 23:30N 37°44' W 122°41'611.5
2017-Nov-22 23:00N 37°38' W 122°40'611.8
2017-Nov-22 22:30N 37°32' W 122°40'611.9
2017-Nov-22 22:00N 37°27' W 122°40'612.1
2017-Nov-22 21:30N 37°21' W 122°40'612.1
2017-Nov-22 21:00N 37°14' W 122°38'4 7.7
2017-Nov-22 20:30N 37°11' W 122°37'3 5.7
2017-Nov-22 20:00N 37°08' W 122°37'612.3
2017-Nov-22 19:30N 37°02' W 122°35'  
2017-Nov-19 17:08N 33°46' W 118°13'0 1.8
2017-Nov-19 16:55N 33°46' W 118°13'2 4.9
2017-Nov-19 16:30N 33°44' W 118°12'4 8.8
2017-Nov-19 16:00N 33°40' W 118°11'5 9.7
2017-Nov-19 15:30N 33°35' W 118°10'510.5
2017-Nov-19 15:00N 33°30' W 118°07'510.5
2017-Nov-19 14:30N 33°25' W 118°05'611.8
2017-Nov-19 14:00N 33°20' W 118°03'5 9.9
2017-Nov-19 13:30N 33°15' W 118°00'3 6.0
2017-Nov-19 13:00N 33°13' W 117°59'4 7.0
2017-Nov-19 12:30N 33°10' W 117°57'611.7
2017-Nov-19 12:00N 33°05' W 117°53'611.5
2017-Nov-19 11:30N 32°59' W 117°51'611.6
2017-Nov-19 10:59N 32°54' W 117°48'611.7
2017-Nov-19 10:30N 32°49' W 117°45'611.8
2017-Nov-19 10:00N 32°44' W 117°41'611.5
2017-Nov-19 09:30N 32°38' W 117°39'611.5
2017-Nov-19 09:00N 32°33' W 117°37'611.8
2017-Nov-19 08:30N 32°27' W 117°34'1411.8
2017-Nov-19 07:20N 32°14' W 117°30'411.6
2017-Nov-19 07:00N 32°10' W 117°28'611.6
2017-Nov-19 06:30N 32°05' W 117°26'611.4
2017-Nov-19 06:00N 31°59' W 117°24'611.3
2017-Nov-19 05:30N 31°54' W 117°22'611.5
2017-Nov-19 04:58N 31°48' W 117°20'511.2
2017-Nov-19 04:30N 31°43' W 117°18'610.9
2017-Nov-19 04:00N 31°38' W 117°16'4111.1
2017-Nov-19 00:21N 30°60' W 117°01'411.5
2017-Nov-19 00:00N 30°56' W 116°59'611.6
2017-Nov-18 23:30N 30°50' W 116°57'611.2
2017-Nov-18 23:00N 30°45' W 116°55'711.0
2017-Nov-18 22:20N 30°38' W 116°52'310.8
2017-Nov-18 22:00N 30°35' W 116°51'610.7
2017-Nov-18 21:27N 30°29' W 116°49'  

Dump ship's entire track history